sensor_id;sensor_type;location;lat;lon;timestamp;temperature;humidity
23987;DHT22;12514;52.140;5.602;2022-09-13T00:00:41;19.40;99.90
23987;DHT22;12514;52.140;5.602;2022-09-13T00:03:08;19.40;99.90
23987;DHT22;12514;52.140;5.602;2022-09-13T00:05:35;19.50;99.90
23987;DHT22;12514;52.140;5.602;2022-09-13T00:08:01;19.40;99.90
23987;DHT22;12514;52.140;5.602;2022-09-13T00:10:26;19.40;99.90
23987;DHT22;12514;52.140;5.602;2022-09-13T00:12:52;19.30;99.90
23987;DHT22;12514;52.140;5.602;2022-09-13T00:15:19;19.30;99.90
23987;DHT22;12514;52.140;5.602;2022-09-13T00:17:45;19.30;99.90
23987;DHT22;12514;52.140;5.602;2022-09-13T00:20:11;19.30;99.90
23987;DHT22;12514;52.140;5.602;2022-09-13T00:22:36;19.30;99.90
23987;DHT22;12514;52.140;5.602;2022-09-13T00:25:04;19.30;99.90
23987;DHT22;12514;52.140;5.602;2022-09-13T00:27:32;19.30;99.90
23987;DHT22;12514;52.140;5.602;2022-09-13T00:29:58;19.40;99.90
23987;DHT22;12514;52.140;5.602;2022-09-13T00:32:23;19.30;99.90
23987;DHT22;12514;52.140;5.602;2022-09-13T00:34:49;19.30;99.90
23987;DHT22;12514;52.140;5.602;2022-09-13T00:37:14;19.30;99.90
23987;DHT22;12514;52.140;5.602;2022-09-13T00:39:40;19.30;99.90
23987;DHT22;12514;52.140;5.602;2022-09-13T00:42:10;19.30;99.90
23987;DHT22;12514;52.140;5.602;2022-09-13T00:45:07;19.20;99.90
23987;DHT22;12514;52.140;5.602;2022-09-13T00:47:50;19.00;99.90
23987;DHT22;12514;52.140;5.602;2022-09-13T00:50:24;19.20;99.90
23987;DHT22;12514;52.140;5.602;2022-09-13T00:53:01;19.20;99.90
23987;DHT22;12514;52.140;5.602;2022-09-13T00:55:54;19.30;99.90
23987;DHT22;12514;52.140;5.602;2022-09-13T00:58:28;19.30;99.90
23987;DHT22;12514;52.140;5.602;2022-09-13T01:00:56;19.30;99.90
23987;DHT22;12514;52.140;5.602;2022-09-13T01:03:26;19.20;99.90
23987;DHT22;12514;52.140;5.602;2022-09-13T01:05:56;19.30;99.90
23987;DHT22;12514;52.140;5.602;2022-09-13T01:08:22;19.30;99.90
23987;DHT22;12514;52.140;5.602;2022-09-13T01:10:50;19.10;99.90
23987;DHT22;12514;52.140;5.602;2022-09-13T01:13:22;19.10;99.90
23987;DHT22;12514;52.140;5.602;2022-09-13T01:15:49;19.10;99.90
23987;DHT22;12514;52.140;5.602;2022-09-13T01:18:15;19.10;99.90
23987;DHT22;12514;52.140;5.602;2022-09-13T01:20:45;19.20;99.90
23987;DHT22;12514;52.140;5.602;2022-09-13T01:29:08;19.10;99.90
23987;DHT22;12514;52.140;5.602;2022-09-13T01:32:03;19.10;99.90
23987;DHT22;12514;52.140;5.602;2022-09-13T01:35:08;19.00;99.90
23987;DHT22;12514;52.140;5.602;2022-09-13T01:40:31;19.00;99.90
23987;DHT22;12514;52.140;5.602;2022-09-13T01:45:39;18.60;99.90
23987;DHT22;12514;52.140;5.602;2022-09-13T01:48:20;18.40;99.90
23987;DHT22;12514;52.140;5.602;2022-09-13T01:58:56;18.50;99.90
23987;DHT22;12514;52.140;5.602;2022-09-13T02:01:44;18.60;99.90
23987;DHT22;12514;52.140;5.602;2022-09-13T02:04:21;18.50;99.90
23987;DHT22;12514;52.140;5.602;2022-09-13T02:07:12;18.60;99.90
23987;DHT22;12514;52.140;5.602;2022-09-13T02:09:43;18.60;99.90
23987;DHT22;12514;52.140;5.602;2022-09-13T02:12:31;18.60;99.90
23987;DHT22;12514;52.140;5.602;2022-09-13T02:15:15;18.60;99.90
23987;DHT22;12514;52.140;5.602;2022-09-13T02:17:57;18.70;99.90
23987;DHT22;12514;52.140;5.602;2022-09-13T02:20:27;18.70;99.90
23987;DHT22;12514;52.140;5.602;2022-09-13T02:22:57;18.80;99.90
23987;DHT22;12514;52.140;5.602;2022-09-13T02:25:25;18.80;99.90
23987;DHT22;12514;52.140;5.602;2022-09-13T02:27:54;18.80;99.90
23987;DHT22;12514;52.140;5.602;2022-09-13T02:30:23;18.70;99.90
23987;DHT22;12514;52.140;5.602;2022-09-13T02:32:56;18.70;99.90
23987;DHT22;12514;52.140;5.602;2022-09-13T02:35:45;18.70;99.90
23987;DHT22;12514;52.140;5.602;2022-09-13T02:38:21;18.70;99.90
23987;DHT22;12514;52.140;5.602;2022-09-13T02:40:54;18.70;99.90
23987;DHT22;12514;52.140;5.602;2022-09-13T02:43:26;18.80;99.90
23987;DHT22;12514;52.140;5.602;2022-09-13T02:46:11;18.40;99.90
23987;DHT22;12514;52.140;5.602;2022-09-13T02:48:49;18.30;99.90
23987;DHT22;12514;52.140;5.602;2022-09-13T02:51:30;18.40;99.90
23987;DHT22;12514;52.140;5.602;2022-09-13T02:57:27;18.50;99.90
23987;DHT22;12514;52.140;5.602;2022-09-13T02:59:56;18.70;99.90
23987;DHT22;12514;52.140;5.602;2022-09-13T03:02:24;18.60;99.90
23987;DHT22;12514;52.140;5.602;2022-09-13T03:04:51;18.60;99.90
23987;DHT22;12514;52.140;5.602;2022-09-13T03:07:17;18.60;99.90
23987;DHT22;12514;52.140;5.602;2022-09-13T03:09:57;18.50;99.90
23987;DHT22;12514;52.140;5.602;2022-09-13T03:17:52;18.50;99.90
23987;DHT22;12514;52.140;5.602;2022-09-13T03:31:23;18.50;99.90
23987;DHT22;12514;52.140;5.602;2022-09-13T03:33:58;18.50;99.90
23987;DHT22;12514;52.140;5.602;2022-09-13T03:36:41;18.50;99.90
23987;DHT22;12514;52.140;5.602;2022-09-13T03:41:48;18.40;99.90
23987;DHT22;12514;52.140;5.602;2022-09-13T03:44:18;18.50;99.90
23987;DHT22;12514;52.140;5.602;2022-09-13T03:46:48;18.40;99.90
23987;DHT22;12514;52.140;5.602;2022-09-13T03:49:17;18.50;99.90
23987;DHT22;12514;52.140;5.602;2022-09-13T03:51:47;18.50;99.90
23987;DHT22;12514;52.140;5.602;2022-09-13T03:54:18;18.40;99.90
23987;DHT22;12514;52.140;5.602;2022-09-13T03:57:04;18.30;99.90
23987;DHT22;12514;52.140;5.602;2022-09-13T03:59:30;18.40;99.90
23987;DHT22;12514;52.140;5.602;2022-09-13T04:01:55;18.30;99.90
23987;DHT22;12514;52.140;5.602;2022-09-13T04:04:21;18.40;99.90
23987;DHT22;12514;52.140;5.602;2022-09-13T04:06:47;18.40;99.90
23987;DHT22;12514;52.140;5.602;2022-09-13T04:09:12;18.40;99.90
23987;DHT22;12514;52.140;5.602;2022-09-13T04:11:38;18.40;99.90
23987;DHT22;12514;52.140;5.602;2022-09-13T04:14:05;18.40;99.90
23987;DHT22;12514;52.140;5.602;2022-09-13T04:16:30;18.40;99.90
23987;DHT22;12514;52.140;5.602;2022-09-13T04:18:56;18.40;99.90
23987;DHT22;12514;52.140;5.602;2022-09-13T04:21:21;18.40;99.90
23987;DHT22;12514;52.140;5.602;2022-09-13T04:23:49;18.50;99.90
23987;DHT22;12514;52.140;5.602;2022-09-13T04:26:14;18.40;99.90
23987;DHT22;12514;52.140;5.602;2022-09-13T04:28:40;18.40;99.90
23987;DHT22;12514;52.140;5.602;2022-09-13T04:31:05;18.40;99.90
23987;DHT22;12514;52.140;5.602;2022-09-13T04:33:31;18.40;99.90
23987;DHT22;12514;52.140;5.602;2022-09-13T04:35:58;18.40;99.90
23987;DHT22;12514;52.140;5.602;2022-09-13T04:38:24;18.30;99.90
23987;DHT22;12514;52.140;5.602;2022-09-13T04:40:56;18.50;99.90
23987;DHT22;12514;52.140;5.602;2022-09-13T04:43:22;18.50;99.90
23987;DHT22;12514;52.140;5.602;2022-09-13T04:45:48;18.40;99.90
23987;DHT22;12514;52.140;5.602;2022-09-13T04:48:13;18.40;99.90
23987;DHT22;12514;52.140;5.602;2022-09-13T04:50:40;18.50;99.90
23987;DHT22;12514;52.140;5.602;2022-09-13T04:53:05;18.40;99.90
23987;DHT22;12514;52.140;5.602;2022-09-13T04:55:31;18.40;99.90
23987;DHT22;12514;52.140;5.602;2022-09-13T04:57:57;18.30;99.90
23987;DHT22;12514;52.140;5.602;2022-09-13T05:00:22;18.30;99.90
23987;DHT22;12514;52.140;5.602;2022-09-13T05:02:54;18.40;99.90
23987;DHT22;12514;52.140;5.602;2022-09-13T05:05:21;18.40;99.90
23987;DHT22;12514;52.140;5.602;2022-09-13T05:07:51;18.30;99.90
23987;DHT22;12514;52.140;5.602;2022-09-13T05:10:17;18.30;99.90
23987;DHT22;12514;52.140;5.602;2022-09-13T05:12:43;18.40;99.90
23987;DHT22;12514;52.140;5.602;2022-09-13T05:15:09;18.30;99.90
23987;DHT22;12514;52.140;5.602;2022-09-13T05:17:36;18.40;99.90
23987;DHT22;12514;52.140;5.602;2022-09-13T05:20:02;18.50;99.90
23987;DHT22;12514;52.140;5.602;2022-09-13T05:22:29;18.50;99.90
23987;DHT22;12514;52.140;5.602;2022-09-13T05:24:55;18.60;99.90
23987;DHT22;12514;52.140;5.602;2022-09-13T05:27:21;18.60;99.90
23987;DHT22;12514;52.140;5.602;2022-09-13T05:29:46;18.60;99.90
23987;DHT22;12514;52.140;5.602;2022-09-13T05:32:12;18.60;99.90
23987;DHT22;12514;52.140;5.602;2022-09-13T05:34:38;18.60;99.90
23987;DHT22;12514;52.140;5.602;2022-09-13T05:37:03;18.60;99.90
23987;DHT22;12514;52.140;5.602;2022-09-13T05:39:29;18.60;99.90
23987;DHT22;12514;52.140;5.602;2022-09-13T05:41:54;18.60;99.90
23987;DHT22;12514;52.140;5.602;2022-09-13T05:44:20;18.60;99.90
23987;DHT22;12514;52.140;5.602;2022-09-13T05:46:46;18.60;99.90
23987;DHT22;12514;52.140;5.602;2022-09-13T05:49:13;18.80;99.90
23987;DHT22;12514;52.140;5.602;2022-09-13T05:51:38;18.80;99.90
23987;DHT22;12514;52.140;5.602;2022-09-13T05:54:04;18.80;99.90
23987;DHT22;12514;52.140;5.602;2022-09-13T05:56:30;18.80;99.90
23987;DHT22;12514;52.140;5.602;2022-09-13T05:58:57;18.90;99.90
23987;DHT22;12514;52.140;5.602;2022-09-13T06:01:25;18.90;99.90
23987;DHT22;12514;52.140;5.602;2022-09-13T06:03:54;19.00;99.90
23987;DHT22;12514;52.140;5.602;2022-09-13T06:06:21;19.00;99.90
23987;DHT22;12514;52.140;5.602;2022-09-13T06:08:47;18.90;99.90
23987;DHT22;12514;52.140;5.602;2022-09-13T06:11:15;18.90;99.90
23987;DHT22;12514;52.140;5.602;2022-09-13T06:13:41;19.00;99.90
23987;DHT22;12514;52.140;5.602;2022-09-13T06:16:11;19.00;99.90
23987;DHT22;12514;52.140;5.602;2022-09-13T06:18:38;19.10;99.90
23987;DHT22;12514;52.140;5.602;2022-09-13T06:21:09;19.10;99.90
23987;DHT22;12514;52.140;5.602;2022-09-13T06:23:36;19.00;99.90
23987;DHT22;12514;52.140;5.602;2022-09-13T06:26:05;19.10;99.90
23987;DHT22;12514;52.140;5.602;2022-09-13T06:28:32;19.20;99.90
23987;DHT22;12514;52.140;5.602;2022-09-13T06:31:19;19.20;99.90
23987;DHT22;12514;52.140;5.602;2022-09-13T06:33:55;19.20;99.90
23987;DHT22;12514;52.140;5.602;2022-09-13T06:36:22;19.20;99.90
23987;DHT22;12514;52.140;5.602;2022-09-13T06:38:47;19.20;99.90
23987;DHT22;12514;52.140;5.602;2022-09-13T06:41:18;19.10;99.90
23987;DHT22;12514;52.140;5.602;2022-09-13T06:43:45;19.20;99.90
23987;DHT22;12514;52.140;5.602;2022-09-13T06:46:16;19.30;99.90
23987;DHT22;12514;52.140;5.602;2022-09-13T06:48:43;19.40;99.90
23987;DHT22;12514;52.140;5.602;2022-09-13T06:51:16;19.40;99.90
23987;DHT22;12514;52.140;5.602;2022-09-13T06:53:44;19.50;99.90
23987;DHT22;12514;52.140;5.602;2022-09-13T06:56:13;19.40;99.90
23987;DHT22;12514;52.140;5.602;2022-09-13T06:58:41;19.50;99.90
23987;DHT22;12514;52.140;5.602;2022-09-13T07:01:12;19.50;99.90
23987;DHT22;12514;52.140;5.602;2022-09-13T07:03:44;19.60;99.90
23987;DHT22;12514;52.140;5.602;2022-09-13T07:06:15;19.60;99.90
23987;DHT22;12514;52.140;5.602;2022-09-13T07:08:42;19.50;99.90
23987;DHT22;12514;52.140;5.602;2022-09-13T07:11:09;19.40;99.90
23987;DHT22;12514;52.140;5.602;2022-09-13T07:13:35;19.40;99.90
23987;DHT22;12514;52.140;5.602;2022-09-13T07:16:03;19.30;99.90
23987;DHT22;12514;52.140;5.602;2022-09-13T07:18:29;19.40;99.90
23987;DHT22;12514;52.140;5.602;2022-09-13T07:21:02;19.20;99.90
23987;DHT22;12514;52.140;5.602;2022-09-13T07:23:32;19.40;99.90
23987;DHT22;12514;52.140;5.602;2022-09-13T07:25:59;19.40;99.90
23987;DHT22;12514;52.140;5.602;2022-09-13T07:28:33;19.20;99.90
23987;DHT22;12514;52.140;5.602;2022-09-13T07:33:31;19.20;99.90
23987;DHT22;12514;52.140;5.602;2022-09-13T07:35:57;19.20;99.90
23987;DHT22;12514;52.140;5.602;2022-09-13T07:38:24;19.30;99.90
23987;DHT22;12514;52.140;5.602;2022-09-13T07:40:56;19.10;99.90
23987;DHT22;12514;52.140;5.602;2022-09-13T07:43:22;19.30;99.90
23987;DHT22;12514;52.140;5.602;2022-09-13T07:45:56;19.30;99.90
23987;DHT22;12514;52.140;5.602;2022-09-13T07:48:22;19.50;99.90
23987;DHT22;12514;52.140;5.602;2022-09-13T07:51:02;19.40;99.90
23987;DHT22;12514;52.140;5.602;2022-09-13T07:53:29;19.50;99.90
23987;DHT22;12514;52.140;5.602;2022-09-13T07:56:09;19.30;99.90
23987;DHT22;12514;52.140;5.602;2022-09-13T07:58:37;19.50;99.90
23987;DHT22;12514;52.140;5.602;2022-09-13T08:01:12;19.50;99.90
23987;DHT22;12514;52.140;5.602;2022-09-13T08:03:39;19.70;99.90
23987;DHT22;12514;52.140;5.602;2022-09-13T08:06:06;19.90;99.90
23987;DHT22;12514;52.140;5.602;2022-09-13T08:08:33;20.00;99.90
23987;DHT22;12514;52.140;5.602;2022-09-13T08:11:00;19.80;99.90
23987;DHT22;12514;52.140;5.602;2022-09-13T08:13:26;20.00;99.90
23987;DHT22;12514;52.140;5.602;2022-09-13T08:15:53;20.20;99.90
23987;DHT22;12514;52.140;5.602;2022-09-13T08:18:19;20.40;99.90
23987;DHT22;12514;52.140;5.602;2022-09-13T08:20:45;20.60;99.90
23987;DHT22;12514;52.140;5.602;2022-09-13T08:23:11;20.50;99.90
23987;DHT22;12514;52.140;5.602;2022-09-13T08:25:37;20.50;99.90
23987;DHT22;12514;52.140;5.602;2022-09-13T08:28:17;20.60;99.90
23987;DHT22;12514;52.140;5.602;2022-09-13T08:30:46;20.60;99.90
23987;DHT22;12514;52.140;5.602;2022-09-13T08:33:12;20.80;99.90
23987;DHT22;12514;52.140;5.602;2022-09-13T08:35:38;21.00;99.90
23987;DHT22;12514;52.140;5.602;2022-09-13T08:38:05;21.10;99.90
23987;DHT22;12514;52.140;5.602;2022-09-13T08:40:39;21.20;99.90
23987;DHT22;12514;52.140;5.602;2022-09-13T08:45:54;21.10;99.90
23987;DHT22;12514;52.140;5.602;2022-09-13T08:48:28;20.90;99.90
23987;DHT22;12514;52.140;5.602;2022-09-13T08:50:58;21.10;99.90
23987;DHT22;12514;52.140;5.602;2022-09-13T08:53:30;21.00;99.90
23987;DHT22;12514;52.140;5.602;2022-09-13T08:56:06;21.00;99.90
23987;DHT22;12514;52.140;5.602;2022-09-13T09:06:32;20.70;99.90
23987;DHT22;12514;52.140;5.602;2022-09-13T09:09:07;20.80;99.90
23987;DHT22;12514;52.140;5.602;2022-09-13T09:11:49;20.80;99.90
23987;DHT22;12514;52.140;5.602;2022-09-13T09:14:31;21.00;99.90
23987;DHT22;12514;52.140;5.602;2022-09-13T09:19:47;21.10;99.90
23987;DHT22;12514;52.140;5.602;2022-09-13T09:22:19;21.10;99.90
23987;DHT22;12514;52.140;5.602;2022-09-13T09:24:53;21.20;99.90
23987;DHT22;12514;52.140;5.602;2022-09-13T09:27:19;21.30;99.90
23987;DHT22;12514;52.140;5.602;2022-09-13T09:29:48;21.30;99.90
23987;DHT22;12514;52.140;5.602;2022-09-13T09:37:35;21.10;99.90
23987;DHT22;12514;52.140;5.602;2022-09-13T09:40:03;21.30;99.90
23987;DHT22;12514;52.140;5.602;2022-09-13T09:42:41;21.10;99.90
23987;DHT22;12514;52.140;5.602;2022-09-13T09:48:37;21.20;99.90
23987;DHT22;12514;52.140;5.602;2022-09-13T09:51:04;21.30;99.90
23987;DHT22;12514;52.140;5.602;2022-09-13T09:53:36;21.40;99.90
23987;DHT22;12514;52.140;5.602;2022-09-13T09:56:22;21.30;99.90
23987;DHT22;12514;52.140;5.602;2022-09-13T09:58:49;21.50;99.90
23987;DHT22;12514;52.140;5.602;2022-09-13T10:04:37;21.50;99.90
23987;DHT22;12514;52.140;5.602;2022-09-13T10:07:27;21.70;99.90
23987;DHT22;12514;52.140;5.602;2022-09-13T10:09:59;21.80;99.90
23987;DHT22;12514;52.140;5.602;2022-09-13T10:12:30;21.80;99.90
23987;DHT22;12514;52.140;5.602;2022-09-13T10:21:32;21.70;99.90
23987;DHT22;12514;52.140;5.602;2022-09-13T10:24:15;21.80;99.90
23987;DHT22;12514;52.140;5.602;2022-09-13T10:26:41;21.90;99.90
23987;DHT22;12514;52.140;5.602;2022-09-13T10:29:12;21.70;99.90
23987;DHT22;12514;52.140;5.602;2022-09-13T10:35:15;21.50;99.90
23987;DHT22;12514;52.140;5.602;2022-09-13T10:37:42;21.30;99.90
23987;DHT22;12514;52.140;5.602;2022-09-13T10:40:32;21.70;99.90
23987;DHT22;12514;52.140;5.602;2022-09-13T10:43:00;21.70;99.90
23987;DHT22;12514;52.140;5.602;2022-09-13T10:45:29;21.90;99.90
23987;DHT22;12514;52.140;5.602;2022-09-13T10:54:19;21.80;99.90
23987;DHT22;12514;52.140;5.602;2022-09-13T10:56:50;21.80;99.90
23987;DHT22;12514;52.140;5.602;2022-09-13T11:01:57;21.90;99.90
23987;DHT22;12514;52.140;5.602;2022-09-13T11:07:43;22.10;99.90
23987;DHT22;12514;52.140;5.602;2022-09-13T11:15:35;21.60;99.90
23987;DHT22;12514;52.140;5.602;2022-09-13T11:21:31;21.90;99.90
23987;DHT22;12514;52.140;5.602;2022-09-13T11:24:14;22.20;99.90
23987;DHT22;12514;52.140;5.602;2022-09-13T11:35:53;22.00;99.90
23987;DHT22;12514;52.140;5.602;2022-09-13T11:38:28;21.80;99.90
23987;DHT22;12514;52.140;5.602;2022-09-13T11:49:08;21.70;99.90
23987;DHT22;12514;52.140;5.602;2022-09-13T11:56:56;22.00;99.90
23987;DHT22;12514;52.140;5.602;2022-09-13T12:02:04;22.10;99.90
23987;DHT22;12514;52.140;5.602;2022-09-13T12:04:58;22.00;99.90
23987;DHT22;12514;52.140;5.602;2022-09-13T12:07:30;22.20;99.90
23987;DHT22;12514;52.140;5.602;2022-09-13T12:10:05;22.00;99.90
23987;DHT22;12514;52.140;5.602;2022-09-13T12:12:33;22.10;99.90
23987;DHT22;12514;52.140;5.602;2022-09-13T12:15:09;22.20;99.90
23987;DHT22;12514;52.140;5.602;2022-09-13T12:17:43;22.20;99.90
23987;DHT22;12514;52.140;5.602;2022-09-13T12:20:29;22.20;99.90
23987;DHT22;12514;52.140;5.602;2022-09-13T12:22:58;22.40;99.90
23987;DHT22;12514;52.140;5.602;2022-09-13T12:25:36;22.10;99.90
23987;DHT22;12514;52.140;5.602;2022-09-13T12:31:17;22.40;99.90
23987;DHT22;12514;52.140;5.602;2022-09-13T12:34:05;22.60;99.90
23987;DHT22;12514;52.140;5.602;2022-09-13T12:40:06;22.50;99.90
23987;DHT22;12514;52.140;5.602;2022-09-13T12:42:50;22.40;99.90
23987;DHT22;12514;52.140;5.602;2022-09-13T12:54:42;22.80;99.90
23987;DHT22;12514;52.140;5.602;2022-09-13T13:00:34;22.80;99.90
23987;DHT22;12514;52.140;5.602;2022-09-13T13:06:34;22.80;99.90
23987;DHT22;12514;52.140;5.602;2022-09-13T13:09:06;22.80;99.90
23987;DHT22;12514;52.140;5.602;2022-09-13T13:11:45;22.60;99.90
23987;DHT22;12514;52.140;5.602;2022-09-13T13:14:44;22.40;99.90
23987;DHT22;12514;52.140;5.602;2022-09-13T13:17:36;22.50;99.90
23987;DHT22;12514;52.140;5.602;2022-09-13T13:23:36;22.70;99.90
23987;DHT22;12514;52.140;5.602;2022-09-13T13:26:47;22.60;99.90
23987;DHT22;12514;52.140;5.602;2022-09-13T13:29:31;22.60;99.90
23987;DHT22;12514;52.140;5.602;2022-09-13T13:32:25;22.70;99.90
23987;DHT22;12514;52.140;5.602;2022-09-13T13:34:51;22.60;99.90
23987;DHT22;12514;52.140;5.602;2022-09-13T13:39:46;22.40;99.90
23987;DHT22;12514;52.140;5.602;2022-09-13T13:57:23;22.40;99.90
23987;DHT22;12514;52.140;5.602;2022-09-13T14:05:33;22.10;99.90
23987;DHT22;12514;52.140;5.602;2022-09-13T14:11:00;22.40;99.90
23987;DHT22;12514;52.140;5.602;2022-09-13T14:19:27;22.50;99.90
23987;DHT22;12514;52.140;5.602;2022-09-13T14:22:15;22.50;99.90
23987;DHT22;12514;52.140;5.602;2022-09-13T14:24:50;22.70;99.90
23987;DHT22;12514;52.140;5.602;2022-09-13T14:29:49;22.50;99.90
23987;DHT22;12514;52.140;5.602;2022-09-13T14:35:38;22.50;99.90
23987;DHT22;12514;52.140;5.602;2022-09-13T14:38:24;22.40;99.90
23987;DHT22;12514;52.140;5.602;2022-09-13T14:40:59;22.30;99.90
23987;DHT22;12514;52.140;5.602;2022-09-13T14:43:27;22.20;99.90
23987;DHT22;12514;52.140;5.602;2022-09-13T14:46:36;22.10;99.90
23987;DHT22;12514;52.140;5.602;2022-09-13T14:52:36;22.00;99.90
23987;DHT22;12514;52.140;5.602;2022-09-13T14:55:12;22.10;99.90
23987;DHT22;12514;52.140;5.602;2022-09-13T14:57:42;22.20;99.90
23987;DHT22;12514;52.140;5.602;2022-09-13T15:00:17;22.00;99.90
23987;DHT22;12514;52.140;5.602;2022-09-13T15:02:54;22.20;99.90
23987;DHT22;12514;52.140;5.602;2022-09-13T15:05:24;22.20;99.90
23987;DHT22;12514;52.140;5.602;2022-09-13T15:07:50;22.20;99.90
23987;DHT22;12514;52.140;5.602;2022-09-13T15:12:53;22.10;99.90
23987;DHT22;12514;52.140;5.602;2022-09-13T15:18:03;22.20;99.90
23987;DHT22;12514;52.140;5.602;2022-09-13T15:20:50;22.20;99.90
23987;DHT22;12514;52.140;5.602;2022-09-13T15:25:50;22.30;99.90
23987;DHT22;12514;52.140;5.602;2022-09-13T15:28:28;22.30;99.90
23987;DHT22;12514;52.140;5.602;2022-09-13T15:30:55;22.10;99.90
23987;DHT22;12514;52.140;5.602;2022-09-13T15:36:21;22.10;99.90
23987;DHT22;12514;52.140;5.602;2022-09-13T15:41:36;21.90;99.90
23987;DHT22;12514;52.140;5.602;2022-09-13T15:44:04;21.70;99.90
23987;DHT22;12514;52.140;5.602;2022-09-13T15:51:36;21.50;99.90
23987;DHT22;12514;52.140;5.602;2022-09-13T15:54:04;21.50;99.90
23987;DHT22;12514;52.140;5.602;2022-09-13T15:56:33;21.50;99.90
23987;DHT22;12514;52.140;5.602;2022-09-13T15:59:02;21.50;99.90
23987;DHT22;12514;52.140;5.602;2022-09-13T16:01:27;21.40;99.90
23987;DHT22;12514;52.140;5.602;2022-09-13T16:03:53;21.40;99.90
23987;DHT22;12514;52.140;5.602;2022-09-13T16:06:19;21.40;99.90
23987;DHT22;12514;52.140;5.602;2022-09-13T16:08:44;21.20;99.90
23987;DHT22;12514;52.140;5.602;2022-09-13T16:11:10;21.30;99.90
23987;DHT22;12514;52.140;5.602;2022-09-13T16:13:36;21.20;99.90
23987;DHT22;12514;52.140;5.602;2022-09-13T16:16:02;21.00;99.90
23987;DHT22;12514;52.140;5.602;2022-09-13T16:18:29;20.90;99.90
23987;DHT22;12514;52.140;5.602;2022-09-13T16:20:55;20.90;99.90
23987;DHT22;12514;52.140;5.602;2022-09-13T16:23:20;21.00;99.90
23987;DHT22;12514;52.140;5.602;2022-09-13T16:25:54;21.00;99.90
23987;DHT22;12514;52.140;5.602;2022-09-13T16:28:19;20.90;99.90
23987;DHT22;12514;52.140;5.602;2022-09-13T16:30:46;21.10;99.90
23987;DHT22;12514;52.140;5.602;2022-09-13T16:33:12;21.10;99.90
23987;DHT22;12514;52.140;5.602;2022-09-13T16:35:37;21.20;99.90
23987;DHT22;12514;52.140;5.602;2022-09-13T16:38:03;21.20;99.90
23987;DHT22;12514;52.140;5.602;2022-09-13T16:40:28;21.10;99.90
23987;DHT22;12514;52.140;5.602;2022-09-13T16:42:54;21.00;99.90
23987;DHT22;12514;52.140;5.602;2022-09-13T16:45:20;21.10;99.90
23987;DHT22;12514;52.140;5.602;2022-09-13T16:47:46;21.00;99.90
23987;DHT22;12514;52.140;5.602;2022-09-13T16:50:11;20.90;99.90
23987;DHT22;12514;52.140;5.602;2022-09-13T16:52:37;20.90;99.90
23987;DHT22;12514;52.140;5.602;2022-09-13T16:55:04;21.00;99.90
23987;DHT22;12514;52.140;5.602;2022-09-13T16:57:30;20.90;99.90
23987;DHT22;12514;52.140;5.602;2022-09-13T16:59:56;21.00;99.90
23987;DHT22;12514;52.140;5.602;2022-09-13T17:02:24;20.90;99.90
23987;DHT22;12514;52.140;5.602;2022-09-13T17:04:50;20.80;99.90
23987;DHT22;12514;52.140;5.602;2022-09-13T17:07:16;20.90;99.90
23987;DHT22;12514;52.140;5.602;2022-09-13T17:09:42;20.80;99.90
23987;DHT22;12514;52.140;5.602;2022-09-13T17:12:10;20.70;99.90
23987;DHT22;12514;52.140;5.602;2022-09-13T17:14:36;20.60;99.90
23987;DHT22;12514;52.140;5.602;2022-09-13T17:17:02;20.50;99.90
23987;DHT22;12514;52.140;5.602;2022-09-13T17:19:30;20.50;99.90
23987;DHT22;12514;52.140;5.602;2022-09-13T17:21:59;20.40;99.90
23987;DHT22;12514;52.140;5.602;2022-09-13T17:24:26;20.60;99.90
23987;DHT22;12514;52.140;5.602;2022-09-13T17:26:53;20.40;99.90
23987;DHT22;12514;52.140;5.602;2022-09-13T17:29:18;20.50;99.90
23987;DHT22;12514;52.140;5.602;2022-09-13T17:31:45;20.50;99.90
23987;DHT22;12514;52.140;5.602;2022-09-13T17:34:11;20.50;99.90
23987;DHT22;12514;52.140;5.602;2022-09-13T17:36:38;20.40;99.90
23987;DHT22;12514;52.140;5.602;2022-09-13T17:39:04;20.40;99.90
23987;DHT22;12514;52.140;5.602;2022-09-13T17:41:30;20.60;99.90
23987;DHT22;12514;52.140;5.602;2022-09-13T17:43:56;20.60;99.90
23987;DHT22;12514;52.140;5.602;2022-09-13T17:46:24;20.50;99.90
23987;DHT22;12514;52.140;5.602;2022-09-13T17:48:51;20.50;99.90
23987;DHT22;12514;52.140;5.602;2022-09-13T17:51:23;20.40;99.90
23987;DHT22;12514;52.140;5.602;2022-09-13T17:53:51;20.30;99.90
23987;DHT22;12514;52.140;5.602;2022-09-13T17:56:19;20.40;99.90
23987;DHT22;12514;52.140;5.602;2022-09-13T17:58:45;20.20;99.90
23987;DHT22;12514;52.140;5.602;2022-09-13T18:01:11;20.20;99.90
23987;DHT22;12514;52.140;5.602;2022-09-13T18:03:37;20.20;99.90
23987;DHT22;12514;52.140;5.602;2022-09-13T18:06:04;20.20;99.90
23987;DHT22;12514;52.140;5.602;2022-09-13T18:08:32;20.30;99.90
23987;DHT22;12514;52.140;5.602;2022-09-13T18:11:15;20.20;99.90
23987;DHT22;12514;52.140;5.602;2022-09-13T18:13:43;19.90;99.90
23987;DHT22;12514;52.140;5.602;2022-09-13T18:16:28;20.00;99.90
23987;DHT22;12514;52.140;5.602;2022-09-13T18:18:54;20.10;99.90
23987;DHT22;12514;52.140;5.602;2022-09-13T18:21:22;20.00;99.90
23987;DHT22;12514;52.140;5.602;2022-09-13T18:23:50;19.70;99.90
23987;DHT22;12514;52.140;5.602;2022-09-13T18:26:18;19.40;99.90
23987;DHT22;12514;52.140;5.602;2022-09-13T18:28:44;19.60;99.90
23987;DHT22;12514;52.140;5.602;2022-09-13T18:31:13;19.30;99.90
23987;DHT22;12514;52.140;5.602;2022-09-13T18:33:39;19.30;99.90
23987;DHT22;12514;52.140;5.602;2022-09-13T18:38:37;19.30;99.90
23987;DHT22;12514;52.140;5.602;2022-09-13T18:41:05;19.00;99.90
23987;DHT22;12514;52.140;5.602;2022-09-13T18:43:32;18.90;99.90
23987;DHT22;12514;52.140;5.602;2022-09-13T18:46:00;18.90;99.90
23987;DHT22;12514;52.140;5.602;2022-09-13T18:48:30;18.80;99.90
23987;DHT22;12514;52.140;5.602;2022-09-13T18:50:56;18.90;99.90
23987;DHT22;12514;52.140;5.602;2022-09-13T18:53:23;18.90;99.90
23987;DHT22;12514;52.140;5.602;2022-09-13T18:55:49;19.00;99.90
23987;DHT22;12514;52.140;5.602;2022-09-13T18:58:14;18.80;99.90
23987;DHT22;12514;52.140;5.602;2022-09-13T19:00:41;18.90;99.90
23987;DHT22;12514;52.140;5.602;2022-09-13T19:03:08;18.90;99.90
23987;DHT22;12514;52.140;5.602;2022-09-13T19:05:36;18.90;99.90
23987;DHT22;12514;52.140;5.602;2022-09-13T19:08:08;18.90;99.90
23987;DHT22;12514;52.140;5.602;2022-09-13T19:10:35;18.90;99.90
23987;DHT22;12514;52.140;5.602;2022-09-13T19:13:01;18.90;99.90
23987;DHT22;12514;52.140;5.602;2022-09-13T19:15:27;18.90;99.90
23987;DHT22;12514;52.140;5.602;2022-09-13T19:17:52;18.60;99.90
23987;DHT22;12514;52.140;5.602;2022-09-13T19:20:18;18.60;99.90
23987;DHT22;12514;52.140;5.602;2022-09-13T19:22:47;18.70;99.90
23987;DHT22;12514;52.140;5.602;2022-09-13T19:25:13;18.60;99.90